createdAt,value
2023-02-22T00:04:50.874Z,97925.19
2023-02-22T00:09:52.293Z,97931.34
2023-02-22T00:14:53.887Z,97919.88
2023-02-22T00:19:55.326Z,97922.53
2023-02-22T00:24:57.605Z,97912.25
2023-02-22T00:29:59.769Z,97916.91
2023-02-22T00:35:06.875Z,97914.44
2023-02-22T00:40:14.658Z,97911.28
2023-02-22T00:45:19.036Z,97910.97
2023-02-22T00:50:20.867Z,97909.66
2023-02-22T00:55:27.960Z,97908.66
2023-02-22T01:00:36.321Z,97907.97
2023-02-22T01:05:40.815Z,97914.94
2023-02-22T01:10:43.263Z,97905.81
2023-02-22T01:15:45.181Z,97918.78
2023-02-22T01:20:47.878Z,97907.63
2023-02-22T01:25:50.105Z,97910.97
2023-02-22T01:30:51.866Z,97908.97
2023-02-22T01:35:53.518Z,97903.34
2023-02-22T01:40:54.973Z,97902.66
2023-02-22T01:46:04.073Z,97900.00
2023-02-22T01:51:11.978Z,97895.66
2023-02-22T01:56:14.686Z,97892.34
2023-02-22T02:01:18.063Z,97891.69
2023-02-22T02:06:20.477Z,97892.69
2023-02-22T02:11:25.530Z,97882.69
2023-02-22T02:16:36.721Z,97879.88
2023-02-22T02:21:44.267Z,97880.38
2023-02-22T02:26:56.729Z,97871.06
2023-02-22T02:32:09.978Z,97869.06
2023-02-22T02:37:31.370Z,97868.06
2023-02-22T02:42:43.397Z,97861.09
2023-02-22T02:47:51.306Z,97860.59
2023-02-22T02:52:56.756Z,97863.06
2023-02-22T02:57:59.288Z,97862.41
2023-02-22T03:03:21.128Z,97853.94
2023-02-22T03:08:41.959Z,97842.78
2023-02-22T03:14:17.660Z,97845.47
2023-02-22T03:19:26.957Z,97846.97
2023-02-22T03:25:10.279Z,97845.13
2023-02-22T03:30:24.082Z,97833.84
2023-02-22T03:35:30.527Z,97834.66
2023-02-22T03:40:36.350Z,97830.88
2023-02-22T03:45:43.334Z,97830.53
2023-02-22T03:50:45.378Z,97830.56
2023-02-22T03:55:52.758Z,97827.72
2023-02-22T04:00:57.516Z,97838.97
2023-02-22T04:05:59.078Z,97842.28
2023-02-22T04:11:01.538Z,97838.13
2023-02-22T04:16:05.421Z,97833.38
2023-02-22T04:21:09.001Z,97834.88
2023-02-22T04:26:15.906Z,97835.53
2023-02-22T04:31:21.556Z,97830.81
2023-02-22T04:36:24.562Z,97839.13
2023-02-22T04:41:28.102Z,97833.97
2023-02-22T04:46:29.729Z,97833.13
2023-02-22T04:51:31.376Z,97831.31
2023-02-22T04:56:40.344Z,97835.16
2023-02-22T05:01:41.836Z,97831.97
2023-02-22T05:06:44.926Z,97834.47
2023-02-22T05:11:46.758Z,97840.66
2023-02-22T05:16:49.766Z,97831.88
2023-02-22T05:21:51.185Z,97824.06
2023-02-22T05:26:53.192Z,97826.91
2023-02-22T05:31:54.744Z,97825.56
2023-02-22T05:36:56.569Z,97820.91
2023-02-22T05:41:58.282Z,97821.25
2023-02-22T05:46:59.706Z,97832.03
2023-02-22T05:52:01.169Z,97822.41
2023-02-22T05:57:02.617Z,97835.88
2023-02-22T06:02:04.171Z,97826.91
2023-02-22T06:07:06.410Z,97840.84
2023-02-22T06:12:08.851Z,97827.72
2023-02-22T06:17:10.249Z,97828.88
2023-02-22T06:22:18.289Z,97829.06
2023-02-22T06:27:19.740Z,97832.34
2023-02-22T06:32:21.237Z,97836.53
2023-02-22T06:37:22.781Z,97844.34
2023-02-22T06:42:24.226Z,97845.84
2023-02-22T06:47:25.734Z,97848.16
2023-02-22T06:52:27.370Z,97841.50
2023-02-22T06:57:28.764Z,97858.13
2023-02-22T07:02:30.194Z,97855.13
2023-02-22T07:07:31.714Z,97852.44
2023-02-22T07:12:33.210Z,97854.06
2023-02-22T07:17:34.609Z,97859.41
2023-02-22T07:22:35.994Z,97856.72
2023-02-22T07:27:38.905Z,97860.50
2023-02-22T07:32:42.039Z,97855.34
2023-02-22T07:37:44.261Z,97865.31
2023-02-22T07:43:01.058Z,97861.25
2023-02-22T07:48:04.496Z,97863.56
2023-02-22T07:53:11.579Z,97856.66
2023-02-22T07:58:15.172Z,97850.78
2023-02-22T08:03:19.124Z,97855.56
2023-02-22T08:08:20.992Z,97859.28
2023-02-22T08:13:23.205Z,97857.56
2023-02-22T08:18:25.493Z,97851.81
2023-02-22T08:23:27.282Z,97864.72
2023-02-22T08:28:28.720Z,97867.31
2023-02-22T08:33:30.140Z,97857.44
2023-02-22T08:38:33.891Z,97851.63
2023-02-22T08:43:35.336Z,97852.03
2023-02-22T08:48:36.783Z,97857.56
2023-02-22T08:53:38.182Z,97852.81
2023-02-22T08:58:39.604Z,97853.00
2023-02-22T09:03:41.093Z,97848.84
2023-02-22T09:08:42.522Z,97853.91
2023-02-22T09:13:44.083Z,97851.53
2023-02-22T09:18:45.552Z,97847.25
2023-02-22T09:23:47.665Z,97843.84
2023-02-22T09:28:50.154Z,97841.63
2023-02-22T09:33:52.026Z,97846.09
2023-02-22T09:38:53.473Z,97845.34
2023-02-22T09:44:15.349Z,97833.44
2023-02-22T09:49:39.128Z,97833.06
2023-02-22T09:54:45.025Z,97826.78
2023-02-22T10:00:15.693Z,97819.63
2023-02-22T10:05:39.515Z,97824.88
2023-02-22T10:10:46.736Z,97827.25
2023-02-22T10:16:00.545Z,97817.91
2023-02-22T10:21:24.852Z,97813.69
2023-02-22T10:26:30.714Z,97804.50
2023-02-22T10:31:37.770Z,97798.63
2023-02-22T10:36:39.297Z,97807.50
2023-02-22T10:41:48.902Z,97803.88
2023-02-22T10:46:53.350Z,97800.84
2023-02-22T10:52:00.981Z,97790.00
2023-02-22T10:57:03.917Z,97794.19
2023-02-22T11:02:33.610Z,97785.63
2023-02-22T11:07:36.618Z,97788.13
2023-02-22T11:12:41.219Z,97777.81
2023-02-22T11:17:44.769Z,97783.00
2023-02-22T11:22:46.334Z,97771.88
2023-02-22T11:27:48.302Z,97772.53
2023-02-22T11:32:54.409Z,97764.72
2023-02-22T11:38:16.305Z,97757.34
2023-02-22T11:43:20.301Z,97757.38
2023-02-22T11:48:23.137Z,97755.75
2023-02-22T11:53:39.790Z,97745.44
2023-02-22T11:58:47.599Z,97743.19
2023-02-22T12:04:28.167Z,97730.78
2023-02-22T12:09:48.139Z,97738.22
2023-02-22T12:15:02.866Z,97732.88
2023-02-22T12:20:10.271Z,97733.47
2023-02-22T12:25:22.913Z,97728.97
2023-02-22T12:30:26.729Z,97728.56
2023-02-22T12:35:34.822Z,97722.16
2023-02-22T12:41:08.682Z,97725.28
2023-02-22T12:46:22.784Z,97722.41
2023-02-22T12:51:38.862Z,97719.50
2023-02-22T12:56:55.599Z,97718.09
2023-02-22T13:02:18.812Z,97718.28
2023-02-22T13:07:26.470Z,97704.22
2023-02-22T13:12:39.292Z,97715.59
2023-02-22T13:18:10.627Z,97712.47
2023-02-22T13:23:36.253Z,97716.97
2023-02-22T13:28:46.931Z,97711.19
2023-02-22T13:33:51.613Z,97715.31
2023-02-22T13:39:12.250Z,97707.69
2023-02-22T13:44:19.727Z,97712.81
2023-02-22T13:49:39.052Z,97711.75
2023-02-22T13:54:46.637Z,97714.66
2023-02-22T13:59:48.285Z,97707.84
2023-02-22T14:04:49.817Z,97712.38
2023-02-22T14:09:53.491Z,97706.38
2023-02-22T14:15:28.600Z,97709.88
2023-02-22T14:20:35.930Z,97699.59
2023-02-22T14:25:41.299Z,97693.22
2023-02-22T14:30:42.898Z,97692.19
2023-02-22T14:35:49.908Z,97679.81
2023-02-22T14:41:03.321Z,97673.63
2023-02-22T14:46:07.084Z,97678.53
2023-02-22T14:51:31.231Z,97675.00
2023-02-22T14:56:55.562Z,97670.84
2023-02-22T15:02:11.982Z,97662.53
2023-02-22T15:07:27.076Z,97664.75
2023-02-22T15:12:31.424Z,97666.78
2023-02-22T15:17:33.457Z,97653.16
2023-02-22T15:22:36.754Z,97649.56
2023-02-22T15:27:47.714Z,97643.50
2023-02-22T15:33:03.240Z,97647.13
2023-02-22T15:38:12.879Z,97633.47
2023-02-22T15:43:24.056Z,97647.34
2023-02-22T15:48:27.909Z,97646.03
2023-02-22T15:53:40.271Z,97648.00
2023-02-22T15:58:44.048Z,97650.56
2023-02-22T16:03:55.430Z,97646.53
2023-02-22T16:08:59.868Z,97643.56
2023-02-22T16:14:04.726Z,97644.88
2023-02-22T16:19:24.726Z,97640.41
2023-02-22T16:24:28.504Z,97639.88
2023-02-22T16:29:30.410Z,97642.19
2023-02-22T16:34:32.117Z,97646.19
2023-02-22T16:39:35.940Z,97644.84
2023-02-22T16:44:37.364Z,97643.09
2023-02-22T16:49:38.791Z,97652.84
2023-02-22T16:54:45.030Z,97635.09
2023-02-22T16:59:50.123Z,97642.81
2023-02-22T17:04:51.650Z,97648.06
2023-02-22T17:09:53.201Z,97637.28
2023-02-22T17:14:54.698Z,97642.53
2023-02-22T17:19:56.146Z,97643.47
2023-02-22T17:24:57.650Z,97644.72
2023-02-22T17:29:59.225Z,97649.28
2023-02-22T17:35:00.664Z,97646.13
2023-02-22T17:40:02.131Z,97648.53
2023-02-22T17:45:03.764Z,97642.75
2023-02-22T17:50:05.584Z,97635.28
2023-02-22T17:55:07.475Z,97630.84
2023-02-22T18:00:13.344Z,97634.59
2023-02-22T18:05:17.713Z,97627.84
2023-02-22T18:10:20.639Z,97626.91
2023-02-22T18:15:22.155Z,97620.66
2023-02-22T18:20:43.786Z,97625.66
2023-02-22T18:26:07.633Z,97616.19
2023-02-22T18:31:15.864Z,97619.56
2023-02-22T18:36:28.397Z,97613.78
2023-02-22T18:41:29.906Z,97608.19
2023-02-22T18:46:31.389Z,97613.19
2023-02-22T18:51:32.794Z,97614.38
2023-02-22T18:56:34.283Z,97606.25
2023-02-22T19:01:38.514Z,97605.94
2023-02-22T19:06:41.300Z,97604.00
2023-02-22T19:11:47.013Z,97602.03
2023-02-22T19:16:49.955Z,97599.09
2023-02-22T19:21:52.110Z,97591.47
2023-02-22T19:26:57.406Z,97588.13
2023-02-22T19:32:00.511Z,97586.84
2023-02-22T19:37:05.100Z,97588.16
2023-02-22T19:42:09.536Z,97586.88
2023-02-22T19:47:11.084Z,97586.59
2023-02-22T19:52:12.900Z,97579.78
2023-02-22T19:57:14.605Z,97574.97
2023-02-22T20:02:16.166Z,97574.69
2023-02-22T20:07:17.944Z,97578.97
2023-02-22T20:12:19.670Z,97571.34
2023-02-22T20:17:21.337Z,97578.03
2023-02-22T20:22:22.848Z,97582.69
2023-02-22T20:27:24.477Z,97580.16
2023-02-22T20:32:28.431Z,97580.38
2023-02-22T20:37:33.308Z,97571.56
2023-02-22T20:42:34.771Z,97572.72
2023-02-22T20:47:36.390Z,97572.91
2023-02-22T20:52:38.133Z,97560.94
2023-02-22T20:57:40.155Z,97557.47
2023-02-22T21:02:41.843Z,97555.81
2023-02-22T21:07:43.364Z,97562.78
2023-02-22T21:12:47.745Z,97558.50
2023-02-22T21:17:49.303Z,97563.81
2023-02-22T21:22:52.579Z,97562.13
2023-02-22T21:27:54.192Z,97554.16
2023-02-22T21:32:56.711Z,97544.19
2023-02-22T21:37:58.194Z,97553.31
2023-02-22T21:42:59.942Z,97539.66
2023-02-22T21:48:01.498Z,97541.31
2023-02-22T21:53:03.135Z,97544.78
2023-02-22T21:58:05.855Z,97537.16
2023-02-22T22:03:20.316Z,97534.50
2023-02-22T22:08:22.019Z,97532.69
2023-02-22T22:13:28.064Z,97529.88
2023-02-22T22:18:29.535Z,97536.47
2023-02-22T22:23:30.964Z,97534.47
2023-02-22T22:28:32.438Z,97530.00
2023-02-22T22:33:35.130Z,97526.31
2023-02-22T22:38:40.335Z,97521.84
2023-02-22T22:43:45.878Z,97532.13
2023-02-22T22:48:47.525Z,97525.81
2023-02-22T22:53:50.375Z,97522.13
2023-02-22T22:58:54.420Z,97524.16
2023-02-22T23:04:01.549Z,97526.81
2023-02-22T23:09:11.671Z,97536.44
2023-02-22T23:14:22.065Z,97530.13
2023-02-22T23:19:24.105Z,97531.13
2023-02-22T23:24:29.280Z,97525.97
2023-02-22T23:29:30.718Z,97532.78
2023-02-22T23:34:33.017Z,97532.63
2023-02-22T23:39:34.422Z,97536.09
2023-02-22T23:44:36.208Z,97535.09
2023-02-22T23:49:38.358Z,97532.78
2023-02-22T23:54:43.658Z,97532.13
2023-02-22T23:59:46.299Z,97535.78
